createdAt,value
2022-10-23T00:01:39.561Z,11.24
2022-10-23T00:04:10.842Z,11.23
2022-10-23T00:06:37.712Z,11.23
2022-10-23T00:09:06.105Z,11.24
2022-10-23T00:11:34.414Z,11.24
2022-10-23T00:14:02.816Z,11.25
2022-10-23T00:16:30.466Z,11.26
2022-10-23T00:18:58.025Z,11.26
2022-10-23T00:21:25.547Z,11.25
2022-10-23T00:23:52.685Z,11.24
2022-10-23T00:26:19.927Z,11.24
2022-10-23T00:28:50.218Z,11.23
2022-10-23T00:31:18.171Z,11.24
2022-10-23T00:33:45.083Z,11.25
2022-10-23T00:36:13.992Z,11.29
2022-10-23T00:38:45.530Z,11.33
2022-10-23T00:41:20.969Z,11.34
2022-10-23T00:44:05.541Z,11.35
2022-10-23T00:46:33.634Z,11.34
2022-10-23T00:49:01.382Z,11.34
2022-10-23T00:51:33.622Z,11.33
2022-10-23T00:54:22.997Z,11.33
2022-10-23T00:56:49.974Z,11.33
2022-10-23T00:59:16.842Z,11.33
2022-10-23T01:01:43.823Z,11.34
2022-10-23T01:04:11.481Z,11.34
2022-10-23T01:06:43.518Z,11.31
2022-10-23T01:09:25.924Z,11.27
2022-10-23T01:12:01.099Z,11.24
2022-10-23T01:14:43.008Z,11.24
2022-10-23T01:17:15.647Z,11.24
2022-10-23T01:19:59.668Z,11.23
2022-10-23T01:22:51.681Z,11.21
2022-10-23T01:25:29.663Z,11.15
2022-10-23T01:28:03.022Z,11.12
2022-10-23T01:30:33.737Z,11.11
2022-10-23T01:33:13.156Z,11.10
2022-10-23T01:35:52.763Z,11.09
2022-10-23T01:38:29.103Z,11.05
2022-10-23T01:41:07.431Z,11.04
2022-10-23T01:43:44.211Z,11.05
2022-10-23T01:46:15.361Z,11.06
2022-10-23T01:48:48.780Z,11.06
2022-10-23T01:51:17.593Z,11.07
2022-10-23T01:53:48.551Z,11.07
2022-10-23T01:56:21.862Z,11.03
2022-10-23T01:58:52.618Z,11.00
2022-10-23T02:01:24.502Z,10.97
2022-10-23T02:03:53.774Z,10.96
2022-10-23T02:06:20.535Z,10.95
2022-10-23T02:08:47.593Z,10.94
2022-10-23T02:11:18.618Z,10.94
2022-10-23T02:13:53.684Z,10.92
2022-10-23T02:16:41.436Z,10.88
2022-10-23T02:19:21.655Z,10.83
2022-10-23T02:22:03.750Z,10.78
2022-10-23T02:24:41.604Z,10.76
2022-10-23T02:27:14.342Z,10.71
2022-10-23T02:29:47.074Z,10.67
2022-10-23T02:32:17.925Z,10.64
2022-10-23T02:34:48.092Z,10.62
2022-10-23T02:37:15.956Z,10.59
2022-10-23T02:39:42.912Z,10.54
2022-10-23T02:42:29.361Z,10.50
2022-10-23T02:45:09.270Z,10.47
2022-10-23T02:47:51.661Z,10.44
2022-10-23T02:50:33.210Z,10.43
2022-10-23T02:53:28.129Z,10.40
2022-10-23T02:56:13.561Z,10.38
2022-10-23T02:59:03.370Z,10.35
2022-10-23T03:01:43.714Z,10.33
2022-10-23T03:04:12.557Z,10.33
2022-10-23T03:06:39.570Z,10.33
2022-10-23T03:09:09.262Z,10.33
2022-10-23T03:11:36.558Z,10.34
2022-10-23T03:14:03.358Z,10.35
2022-10-23T03:16:31.476Z,10.35
2022-10-23T03:18:58.263Z,10.35
2022-10-23T03:21:25.286Z,10.37
2022-10-23T03:23:53.021Z,10.38
2022-10-23T03:26:26.411Z,10.41
2022-10-23T03:28:53.583Z,10.43
2022-10-23T03:31:21.384Z,10.48
2022-10-23T03:33:49.635Z,10.53
2022-10-23T03:36:16.603Z,10.57
2022-10-23T03:38:44.202Z,10.57
2022-10-23T03:41:10.976Z,10.55
2022-10-23T03:43:37.723Z,10.55
2022-10-23T03:46:09.693Z,10.54
2022-10-23T03:48:38.455Z,10.56
2022-10-23T03:51:06.209Z,10.60
2022-10-23T03:53:32.947Z,10.63
2022-10-23T03:56:01.731Z,10.63
2022-10-23T03:58:28.702Z,10.66
2022-10-23T04:00:55.920Z,10.67
2022-10-23T04:03:23.319Z,10.68
2022-10-23T04:05:52.232Z,10.69
2022-10-23T04:08:21.487Z,10.72
2022-10-23T04:10:51.151Z,10.74
2022-10-23T04:13:20.870Z,10.76
2022-10-23T04:15:50.242Z,10.79
2022-10-23T04:18:17.589Z,10.80
2022-10-23T04:20:47.091Z,10.83
2022-10-23T04:23:13.926Z,10.85
2022-10-23T04:25:42.015Z,10.87
2022-10-23T04:28:08.914Z,10.91
2022-10-23T04:30:38.761Z,10.94
2022-10-23T04:33:05.902Z,10.97
2022-10-23T04:35:33.553Z,10.98
2022-10-23T04:38:00.274Z,10.98
2022-10-23T04:40:26.991Z,11.00
2022-10-23T04:42:54.676Z,11.05
2022-10-23T04:45:21.726Z,11.14
2022-10-23T04:47:48.505Z,11.18
2022-10-23T04:50:15.777Z,11.13
2022-10-23T04:52:58.289Z,11.11
2022-10-23T04:55:40.063Z,11.12
2022-10-23T04:58:12.026Z,11.10
2022-10-23T05:00:38.741Z,11.10
2022-10-23T05:03:05.613Z,11.12
2022-10-23T05:05:39.331Z,11.14
2022-10-23T05:08:24.772Z,11.17
2022-10-23T05:11:06.803Z,11.19
2022-10-23T05:13:38.574Z,11.20
2022-10-23T05:16:05.673Z,11.21
2022-10-23T05:18:39.205Z,11.20
2022-10-23T05:21:13.531Z,11.17
2022-10-23T05:23:42.950Z,11.16
2022-10-23T05:26:09.794Z,11.18
2022-10-23T05:28:37.938Z,11.21
2022-10-23T05:31:06.159Z,11.23
2022-10-23T05:33:36.607Z,11.25
2022-10-23T05:36:03.829Z,11.26
2022-10-23T05:38:34.845Z,11.27
2022-10-23T05:41:06.494Z,11.26
2022-10-23T05:43:33.242Z,11.27
2022-10-23T05:46:09.411Z,11.28
2022-10-23T05:48:52.499Z,11.31
2022-10-23T05:51:37.007Z,11.31
2022-10-23T05:54:21.786Z,11.33
2022-10-23T05:56:58.523Z,11.35
2022-10-23T05:59:32.476Z,11.37
2022-10-23T06:02:12.759Z,11.39
2022-10-23T06:04:47.821Z,11.41
2022-10-23T06:07:33.716Z,11.44
2022-10-23T06:10:05.538Z,11.43
2022-10-23T06:12:33.943Z,11.41
2022-10-23T06:15:00.998Z,11.40
2022-10-23T06:17:42.789Z,11.41
2022-10-23T06:20:10.206Z,11.44
2022-10-23T06:22:39.166Z,11.45
2022-10-23T06:25:18.772Z,11.51
2022-10-23T06:27:45.848Z,11.52
2022-10-23T06:30:13.404Z,11.54
2022-10-23T06:32:40.501Z,11.56
2022-10-23T06:35:11.506Z,11.58
2022-10-23T06:37:38.981Z,11.60
2022-10-23T06:40:10.731Z,11.62
2022-10-23T06:42:50.888Z,11.65
2022-10-23T06:45:34.209Z,11.73
2022-10-23T06:48:21.023Z,11.81
2022-10-23T06:50:47.701Z,11.84
2022-10-23T06:53:20.095Z,11.89
2022-10-23T06:55:55.338Z,11.93
2022-10-23T06:58:22.784Z,11.99
2022-10-23T07:01:04.405Z,12.12
2022-10-23T07:03:31.984Z,12.22
2022-10-23T07:06:02.041Z,12.32
2022-10-23T07:08:29.570Z,12.38
2022-10-23T07:10:56.936Z,12.46
2022-10-23T07:13:25.244Z,12.55
2022-10-23T07:15:58.243Z,12.65
2022-10-23T07:18:25.964Z,12.79
2022-10-23T07:21:08.659Z,12.93
2022-10-23T07:23:37.177Z,13.15
2022-10-23T07:26:06.389Z,13.51
2022-10-23T07:28:34.482Z,13.89
2022-10-23T07:31:02.235Z,14.08
2022-10-23T07:33:50.338Z,14.24
2022-10-23T07:36:19.515Z,14.27
2022-10-23T07:38:46.832Z,14.32
2022-10-23T07:41:13.658Z,14.37
2022-10-23T07:43:40.814Z,14.38
2022-10-23T07:46:09.956Z,14.41
2022-10-23T07:48:40.068Z,14.51
2022-10-23T07:51:13.419Z,14.65
2022-10-23T07:53:44.749Z,14.81
2022-10-23T07:56:26.369Z,14.93
2022-10-23T07:59:13.630Z,15.13
2022-10-23T08:01:43.442Z,15.22
2022-10-23T08:04:11.203Z,15.38
2022-10-23T08:06:44.266Z,15.56
2022-10-23T08:09:11.261Z,15.41
2022-10-23T08:11:38.857Z,15.29
2022-10-23T08:14:08.256Z,15.24
2022-10-23T08:16:38.339Z,15.22
2022-10-23T08:19:07.869Z,15.19
2022-10-23T08:21:36.197Z,15.14
2022-10-23T08:24:03.431Z,15.13
2022-10-23T08:26:31.052Z,15.13
2022-10-23T08:28:59.636Z,15.04
2022-10-23T08:31:27.261Z,14.92
2022-10-23T08:34:09.475Z,14.86
2022-10-23T08:36:39.435Z,14.84
2022-10-23T08:39:06.841Z,14.89
2022-10-23T08:41:37.762Z,14.97
2022-10-23T08:44:24.991Z,15.04
2022-10-23T08:47:02.038Z,15.06
2022-10-23T08:49:51.820Z,15.01
2022-10-23T08:52:30.243Z,14.96
2022-10-23T08:55:12.649Z,15.08
2022-10-23T08:57:47.861Z,15.20
2022-10-23T09:00:16.867Z,15.25
2022-10-23T09:02:47.876Z,15.25
2022-10-23T09:05:19.493Z,15.19
2022-10-23T09:08:17.544Z,15.11
2022-10-23T09:11:15.669Z,15.13
2022-10-23T09:13:49.459Z,15.22
2022-10-23T09:16:44.697Z,15.25
2022-10-23T09:19:16.175Z,15.18
2022-10-23T09:21:47.354Z,15.19
2022-10-23T09:24:18.019Z,15.31
2022-10-23T09:26:48.450Z,15.50
2022-10-23T09:29:36.226Z,15.78
2022-10-23T09:32:06.847Z,16.06
2022-10-23T09:34:35.178Z,16.18
2022-10-23T09:37:17.745Z,16.31
2022-10-23T09:39:47.000Z,16.31
2022-10-23T09:42:22.419Z,16.34
2022-10-23T09:44:52.258Z,16.51
2022-10-23T09:47:21.329Z,16.76
2022-10-23T09:49:51.604Z,16.91
2022-10-23T09:52:18.332Z,17.12
2022-10-23T09:54:48.613Z,17.29
2022-10-23T09:57:32.020Z,17.40
2022-10-23T10:00:04.172Z,17.39
2022-10-23T10:02:38.975Z,17.24
2022-10-23T10:05:22.370Z,17.09
2022-10-23T10:08:12.241Z,16.92
2022-10-23T10:10:45.395Z,16.77
2022-10-23T10:13:38.460Z,16.82
2022-10-23T10:16:20.787Z,16.88
2022-10-23T10:19:17.341Z,17.06
2022-10-23T10:22:09.057Z,17.24
2022-10-23T10:24:52.291Z,17.38
2022-10-23T10:27:46.411Z,17.50
2022-10-23T10:30:18.464Z,17.56
2022-10-23T10:32:52.563Z,17.48
2022-10-23T10:35:23.398Z,17.37
2022-10-23T10:37:50.618Z,17.32
2022-10-23T10:40:35.444Z,17.29
2022-10-23T10:43:24.172Z,17.28
2022-10-23T10:46:06.106Z,17.36
2022-10-23T10:48:48.623Z,17.44
2022-10-23T10:51:50.719Z,17.51
2022-10-23T10:54:48.834Z,17.56
2022-10-23T10:57:34.105Z,17.68
2022-10-23T11:00:07.221Z,17.72
2022-10-23T11:02:45.065Z,17.78
2022-10-23T11:05:19.209Z,17.89
2022-10-23T11:08:10.116Z,18.03
2022-10-23T11:10:41.183Z,18.11
2022-10-23T11:13:24.827Z,18.17
2022-10-23T11:15:54.989Z,18.28
2022-10-23T11:18:28.582Z,18.44
2022-10-23T11:21:00.393Z,18.53
2022-10-23T11:23:42.583Z,18.64
2022-10-23T11:26:10.407Z,18.77
2022-10-23T11:28:37.121Z,18.81
2022-10-23T11:31:21.790Z,18.88
2022-10-23T11:34:04.216Z,18.94
2022-10-23T11:36:55.030Z,18.93
2022-10-23T11:39:26.881Z,18.93
2022-10-23T11:42:12.641Z,18.89
2022-10-23T11:44:43.543Z,18.97
2022-10-23T11:47:32.025Z,19.00
2022-10-23T11:50:09.345Z,18.85
2022-10-23T11:52:45.615Z,18.71
2022-10-23T11:55:21.190Z,18.60
2022-10-23T11:58:14.585Z,18.45
2022-10-23T12:00:54.327Z,18.33
2022-10-23T12:03:29.071Z,18.27
2022-10-23T12:06:01.940Z,18.31
2022-10-23T12:08:32.690Z,18.34
2022-10-23T12:11:02.141Z,18.31
2022-10-23T12:13:32.768Z,18.17
2022-10-23T12:16:00.964Z,18.12
2022-10-23T12:18:28.452Z,18.02
2022-10-23T12:20:58.660Z,17.98
2022-10-23T12:23:51.073Z,18.05
2022-10-23T12:26:22.945Z,18.20
2022-10-23T12:29:17.364Z,18.68
2022-10-23T12:32:08.229Z,19.50
2022-10-23T12:35:08.100Z,20.29
2022-10-23T12:37:58.138Z,20.88
2022-10-23T12:40:29.951Z,21.29
2022-10-23T12:42:59.526Z,21.50
2022-10-23T12:45:30.007Z,21.77
2022-10-23T12:47:56.756Z,22.14
2022-10-23T12:50:25.045Z,22.50
2022-10-23T12:52:54.038Z,22.78
2022-10-23T12:55:21.940Z,23.02
2022-10-23T12:57:48.727Z,23.00
2022-10-23T13:00:19.934Z,23.07
2022-10-23T13:02:47.005Z,23.07
2022-10-23T13:05:20.109Z,22.98
2022-10-23T13:07:48.721Z,22.89
2022-10-23T13:10:20.744Z,22.73
2022-10-23T13:13:05.020Z,22.55
2022-10-23T13:15:40.251Z,22.41
2022-10-23T13:18:08.553Z,22.22
2022-10-23T13:20:41.131Z,22.06
2022-10-23T13:23:07.906Z,21.92
2022-10-23T13:25:36.796Z,21.73
2022-10-23T13:28:15.011Z,21.61
2022-10-23T13:30:46.550Z,21.54
2022-10-23T13:33:15.672Z,21.36
2022-10-23T13:35:42.439Z,21.18
2022-10-23T13:38:11.948Z,21.26
2022-10-23T13:40:38.711Z,21.41
2022-10-23T13:43:14.563Z,21.48
2022-10-23T13:45:41.605Z,21.38
2022-10-23T13:48:13.892Z,21.11
2022-10-23T13:50:40.848Z,20.99
2022-10-23T13:53:12.563Z,20.87
2022-10-23T13:55:42.885Z,20.66
2022-10-23T13:58:10.599Z,20.53
2022-10-23T14:00:38.936Z,20.52
2022-10-23T14:03:05.782Z,20.59
2022-10-23T14:05:32.493Z,20.69
2022-10-23T14:07:59.323Z,20.73
2022-10-23T14:10:27.752Z,20.69
2022-10-23T14:12:55.114Z,20.54
2022-10-23T14:15:22.360Z,20.36
2022-10-23T14:17:49.207Z,20.27
2022-10-23T14:20:19.006Z,20.20
2022-10-23T14:22:46.518Z,20.16
2022-10-23T14:25:13.502Z,20.20
2022-10-23T14:27:40.342Z,20.20
2022-10-23T14:30:08.130Z,20.09
2022-10-23T14:32:34.975Z,19.91
2022-10-23T14:35:03.938Z,19.72
2022-10-23T14:37:31.537Z,19.52
2022-10-23T14:39:58.988Z,19.39
2022-10-23T14:42:30.528Z,19.22
2022-10-23T14:45:02.844Z,18.97
2022-10-23T14:47:31.701Z,18.73
2022-10-23T14:49:58.408Z,18.49
2022-10-23T14:52:25.205Z,18.26
2022-10-23T14:54:53.604Z,18.06
2022-10-23T14:57:22.163Z,17.88
2022-10-23T14:59:49.767Z,17.71
2022-10-23T15:02:17.607Z,17.53
2022-10-23T15:04:44.540Z,17.36
2022-10-23T15:07:11.496Z,17.18
2022-10-23T15:09:39.735Z,17.02
2022-10-23T15:12:07.879Z,16.83
2022-10-23T15:14:35.215Z,16.64
2022-10-23T15:17:03.026Z,16.47
2022-10-23T15:19:30.080Z,16.33
2022-10-23T15:21:57.077Z,16.18
2022-10-23T15:24:23.966Z,15.99
2022-10-23T15:26:51.811Z,15.81
2022-10-23T15:29:19.716Z,15.62
2022-10-23T15:31:53.266Z,15.46
2022-10-23T15:34:23.789Z,15.29
2022-10-23T15:36:52.608Z,15.09
2022-10-23T15:39:22.867Z,14.80
2022-10-23T15:41:53.580Z,14.46
2022-10-23T15:44:22.360Z,14.13
2022-10-23T15:46:49.888Z,13.89
2022-10-23T15:49:17.579Z,13.75
2022-10-23T15:51:44.402Z,13.63
2022-10-23T15:54:16.647Z,13.56
2022-10-23T15:56:44.728Z,13.48
2022-10-23T15:59:11.554Z,13.34
2022-10-23T16:01:38.574Z,13.22
2022-10-23T16:04:05.840Z,13.10
2022-10-23T16:06:32.915Z,12.99
2022-10-23T16:08:59.706Z,12.89
2022-10-23T16:11:29.823Z,12.76
2022-10-23T16:13:58.473Z,12.64
2022-10-23T16:16:27.053Z,12.54
2022-10-23T16:18:53.927Z,12.43
2022-10-23T16:21:24.828Z,12.32
2022-10-23T16:23:53.268Z,12.22
2022-10-23T16:26:21.070Z,12.12
2022-10-23T16:28:47.962Z,12.02
2022-10-23T16:31:20.057Z,11.92
2022-10-23T16:33:48.424Z,11.82
2022-10-23T16:36:15.750Z,11.72
2022-10-23T16:38:57.999Z,11.58
2022-10-23T16:41:45.246Z,11.45
2022-10-23T16:44:18.398Z,11.36
2022-10-23T16:47:00.718Z,11.27
2022-10-23T16:49:29.799Z,11.15
2022-10-23T16:51:56.647Z,11.00
2022-10-23T16:54:23.376Z,10.86
2022-10-23T16:56:50.254Z,10.77
2022-10-23T16:59:17.059Z,10.70
2022-10-23T17:01:44.017Z,10.65
2022-10-23T17:04:10.858Z,10.58
2022-10-23T17:06:37.669Z,10.47
2022-10-23T17:09:06.355Z,10.38
2022-10-23T17:11:38.408Z,10.30
2022-10-23T17:14:07.858Z,10.20
2022-10-23T17:16:40.269Z,10.13
2022-10-23T17:19:20.851Z,10.07
2022-10-23T17:21:57.952Z,10.01
2022-10-23T17:24:25.075Z,9.97
2022-10-23T17:26:52.012Z,9.94
2022-10-23T17:29:23.318Z,9.90
2022-10-23T17:31:53.435Z,9.85
2022-10-23T17:34:22.620Z,9.80
2022-10-23T17:36:52.890Z,9.74
2022-10-23T17:39:23.431Z,9.69
2022-10-23T17:41:50.764Z,9.67
2022-10-23T17:44:20.516Z,9.66
2022-10-23T17:46:53.262Z,9.67
2022-10-23T17:49:21.057Z,9.66
2022-10-23T17:51:57.734Z,9.66
2022-10-23T17:54:27.091Z,9.65
2022-10-23T17:56:53.974Z,9.65
2022-10-23T17:59:22.089Z,9.67
2022-10-23T18:01:49.609Z,9.69
2022-10-23T18:04:19.124Z,9.73
2022-10-23T18:06:49.461Z,9.74
2022-10-23T18:09:17.030Z,9.73
2022-10-23T18:11:48.118Z,9.73
2022-10-23T18:14:17.161Z,9.71
2022-10-23T18:16:45.841Z,9.66
2022-10-23T18:19:14.035Z,9.61
2022-10-23T18:21:41.563Z,9.58
2022-10-23T18:24:08.688Z,9.55
2022-10-23T18:26:37.738Z,9.55
2022-10-23T18:29:07.863Z,9.48
2022-10-23T18:31:37.466Z,9.35
2022-10-23T18:34:14.681Z,9.29
2022-10-23T18:36:42.092Z,9.28
2022-10-23T18:39:14.403Z,9.30
2022-10-23T18:41:45.122Z,9.32
2022-10-23T18:44:17.286Z,9.34
2022-10-23T18:46:45.070Z,9.35
2022-10-23T18:49:11.918Z,9.39
2022-10-23T18:51:39.822Z,9.43
2022-10-23T18:54:25.141Z,9.46
2022-10-23T18:56:52.056Z,9.45
2022-10-23T18:59:20.929Z,9.43
2022-10-23T19:01:48.693Z,9.40
2022-10-23T19:04:16.136Z,9.36
2022-10-23T19:06:43.005Z,9.31
2022-10-23T19:09:13.757Z,9.29
2022-10-23T19:11:42.112Z,9.24
2022-10-23T19:14:09.436Z,9.18
2022-10-23T19:16:43.779Z,9.13
2022-10-23T19:19:13.571Z,9.07
2022-10-23T19:21:41.741Z,8.99
2022-10-23T19:24:19.736Z,8.93
2022-10-23T19:26:49.965Z,8.87
2022-10-23T19:29:34.919Z,8.83
2022-10-23T19:32:07.192Z,8.79
2022-10-23T19:34:34.286Z,8.77
2022-10-23T19:37:01.459Z,8.73
2022-10-23T19:39:28.439Z,8.67
2022-10-23T19:41:55.357Z,8.60
2022-10-23T19:44:22.265Z,8.50
2022-10-23T19:46:49.168Z,8.45
2022-10-23T19:49:33.384Z,8.40
2022-10-23T19:52:00.142Z,8.35
2022-10-23T19:54:27.153Z,8.26
2022-10-23T19:56:53.867Z,8.20
2022-10-23T19:59:20.704Z,8.18
2022-10-23T20:01:49.034Z,8.12
2022-10-23T20:04:18.391Z,8.04
2022-10-23T20:06:46.180Z,7.97
2022-10-23T20:09:13.188Z,7.92
2022-10-23T20:11:40.855Z,7.89
2022-10-23T20:14:08.340Z,7.89
2022-10-23T20:16:37.500Z,7.89
2022-10-23T20:19:07.305Z,7.89
2022-10-23T20:21:36.236Z,7.87
2022-10-23T20:24:02.989Z,7.82
2022-10-23T20:26:30.590Z,7.75
2022-10-23T20:28:57.705Z,7.69
2022-10-23T20:31:26.215Z,7.64
2022-10-23T20:33:53.400Z,7.62
2022-10-23T20:36:37.941Z,7.61
2022-10-23T20:39:10.101Z,7.61
2022-10-23T20:41:37.578Z,7.58
2022-10-23T20:44:06.882Z,7.55
2022-10-23T20:46:34.038Z,7.51
2022-10-23T20:49:00.849Z,7.45
2022-10-23T20:51:27.836Z,7.41
2022-10-23T20:53:54.944Z,7.38
2022-10-23T20:56:30.173Z,7.36
2022-10-23T20:59:00.110Z,7.35
2022-10-23T21:01:28.329Z,7.33
2022-10-23T21:03:57.224Z,7.30
2022-10-23T21:06:25.479Z,7.27
2022-10-23T21:09:02.438Z,7.23
2022-10-23T21:11:29.408Z,7.16
2022-10-23T21:13:57.408Z,7.13
2022-10-23T21:16:28.635Z,7.08
2022-10-23T21:18:56.901Z,7.04
2022-10-23T21:21:24.848Z,7.00
2022-10-23T21:23:54.986Z,6.97
2022-10-23T21:26:24.284Z,6.92
2022-10-23T21:28:56.168Z,6.86
2022-10-23T21:31:27.826Z,6.77
2022-10-23T21:33:54.557Z,6.70
2022-10-23T21:36:24.153Z,6.66
2022-10-23T21:38:53.691Z,6.64
2022-10-23T21:41:24.059Z,6.65
2022-10-23T21:43:56.543Z,6.63
2022-10-23T21:46:24.615Z,6.62
2022-10-23T21:48:52.187Z,6.59
2022-10-23T21:51:29.553Z,6.56
2022-10-23T21:53:57.761Z,6.50
2022-10-23T21:56:30.556Z,6.45
2022-10-23T21:58:59.576Z,6.42
2022-10-23T22:01:27.310Z,6.41
2022-10-23T22:03:54.483Z,6.41
2022-10-23T22:06:25.695Z,6.43
2022-10-23T22:08:53.924Z,6.43
2022-10-23T22:11:20.893Z,6.44
2022-10-23T22:13:48.289Z,6.42
2022-10-23T22:16:16.229Z,6.41
2022-10-23T22:18:43.435Z,6.42
2022-10-23T22:21:13.210Z,6.44
2022-10-23T22:23:40.433Z,6.47
2022-10-23T22:26:10.023Z,6.51
2022-10-23T22:28:36.864Z,6.57
2022-10-23T22:31:03.561Z,6.61
2022-10-23T22:33:31.117Z,6.64
2022-10-23T22:36:02.480Z,6.67
2022-10-23T22:38:32.033Z,6.70
2022-10-23T22:41:02.039Z,6.74
2022-10-23T22:43:29.602Z,6.79
2022-10-23T22:46:13.249Z,6.86
2022-10-23T22:48:40.455Z,6.94
2022-10-23T22:51:09.141Z,6.98
2022-10-23T22:53:36.338Z,7.01
2022-10-23T22:56:07.427Z,7.03
2022-10-23T22:58:34.717Z,7.06
2022-10-23T23:01:05.890Z,7.08
2022-10-23T23:03:32.807Z,7.12
2022-10-23T23:05:59.542Z,7.14
2022-10-23T23:08:26.253Z,7.16
2022-10-23T23:10:54.590Z,7.18
2022-10-23T23:13:21.657Z,7.17
2022-10-23T23:15:48.420Z,7.19
2022-10-23T23:18:15.181Z,7.21
2022-10-23T23:20:42.089Z,7.22
2022-10-23T23:23:09.693Z,7.26
2022-10-23T23:25:49.433Z,7.30
2022-10-23T23:28:22.527Z,7.34
2022-10-23T23:30:49.654Z,7.37
2022-10-23T23:33:23.919Z,7.40
2022-10-23T23:35:50.629Z,7.45
2022-10-23T23:38:17.282Z,7.51
2022-10-23T23:40:51.717Z,7.57
2022-10-23T23:43:18.682Z,7.65
2022-10-23T23:45:45.881Z,7.72
2022-10-23T23:48:12.621Z,7.76
2022-10-23T23:50:39.351Z,7.79
2022-10-23T23:53:06.025Z,7.81
2022-10-23T23:55:33.125Z,7.83
2022-10-23T23:57:59.874Z,7.86
